createdAt,value
2023-04-20T00:02:16.715Z,7.17
2023-04-20T00:04:44.644Z,7.15
2023-04-20T00:07:12.875Z,7.04
2023-04-20T00:09:40.815Z,7.05
2023-04-20T00:12:08.690Z,7.08
2023-04-20T00:14:36.429Z,7.04
2023-04-20T00:17:04.272Z,7.04
2023-04-20T00:19:34.096Z,7.09
2023-04-20T00:22:01.951Z,7.09
2023-04-20T00:24:29.769Z,7.19
2023-04-20T00:26:57.608Z,7.15
2023-04-20T00:29:25.364Z,7.07
2023-04-20T00:31:53.147Z,7.07
2023-04-20T00:34:21.984Z,6.97
2023-04-20T00:36:51.089Z,6.99
2023-04-20T00:39:19.338Z,6.97
2023-04-20T00:41:47.184Z,6.99
2023-04-20T00:44:15.235Z,6.96
2023-04-20T00:46:43.068Z,7.01
2023-04-20T00:49:11.127Z,7.00
2023-04-20T00:51:39.221Z,6.90
2023-04-20T00:54:08.552Z,6.97
2023-04-20T00:56:36.312Z,6.87
2023-04-20T00:59:04.120Z,6.85
2023-04-20T01:01:31.981Z,6.85
2023-04-20T01:04:00.113Z,6.81
2023-04-20T01:06:27.999Z,6.82
2023-04-20T01:08:55.972Z,6.81
2023-04-20T01:11:25.117Z,6.78
2023-04-20T01:13:52.836Z,6.72
2023-04-20T01:16:20.661Z,6.68
2023-04-20T01:18:51.349Z,6.62
2023-04-20T01:21:21.811Z,6.62
2023-04-20T01:23:51.336Z,6.61
2023-04-20T01:26:20.641Z,6.53
2023-04-20T01:28:48.374Z,6.49
2023-04-20T01:31:17.319Z,6.47
2023-04-20T01:33:45.296Z,6.43
2023-04-20T01:36:13.124Z,6.46
2023-04-20T01:38:41.217Z,6.41
2023-04-20T01:41:11.044Z,6.40
2023-04-20T01:43:39.853Z,6.41
2023-04-20T01:46:08.210Z,6.39
2023-04-20T01:48:35.931Z,6.38
2023-04-20T01:51:03.754Z,6.32
2023-04-20T01:53:31.513Z,6.32
2023-04-20T01:56:00.859Z,6.32
2023-04-20T01:58:30.005Z,6.17
2023-04-20T02:00:57.795Z,6.15
2023-04-20T02:03:25.700Z,6.13
2023-04-20T02:05:53.665Z,6.17
2023-04-20T02:08:21.659Z,6.17
2023-04-20T02:10:49.360Z,6.12
2023-04-20T02:13:17.168Z,6.05
2023-04-20T02:16:07.899Z,6.02
2023-04-20T02:18:35.623Z,5.90
2023-04-20T02:21:03.454Z,5.88
2023-04-20T02:23:31.161Z,5.87
2023-04-20T02:25:59.054Z,5.85
2023-04-20T02:28:26.882Z,5.88
2023-04-20T02:30:54.680Z,5.87
2023-04-20T02:33:23.815Z,5.86
2023-04-20T02:35:51.584Z,5.84
2023-04-20T02:38:19.363Z,5.77
2023-04-20T02:40:47.084Z,5.78
2023-04-20T02:43:14.907Z,5.81
2023-04-20T02:45:42.744Z,5.81
2023-04-20T02:48:10.495Z,5.87
2023-04-20T02:50:39.833Z,5.86
2023-04-20T02:53:07.554Z,5.91
2023-04-20T02:55:35.352Z,5.98
2023-04-20T02:58:03.156Z,5.94
2023-04-20T03:00:31.156Z,5.94
2023-04-20T03:02:59.042Z,6.01
2023-04-20T03:05:26.943Z,5.97
2023-04-20T03:07:57.424Z,6.01
2023-04-20T03:10:25.153Z,6.04
2023-04-20T03:12:52.965Z,6.04
2023-04-20T03:15:21.271Z,6.11
2023-04-20T03:17:49.157Z,6.05
2023-04-20T03:20:17.164Z,6.10
2023-04-20T03:22:44.890Z,6.18
2023-04-20T03:25:13.990Z,6.20
2023-04-20T03:27:41.726Z,6.24
2023-04-20T03:30:10.929Z,6.21
2023-04-20T03:32:39.338Z,6.29
2023-04-20T03:35:08.700Z,6.30
2023-04-20T03:37:38.114Z,6.30
2023-04-20T03:40:07.180Z,6.33
2023-04-20T03:42:37.244Z,6.37
2023-04-20T03:45:05.954Z,6.43
2023-04-20T03:47:33.791Z,6.43
2023-04-20T03:50:01.508Z,6.35
2023-04-20T03:52:29.322Z,6.49
2023-04-20T03:54:57.073Z,6.54
2023-04-20T03:57:24.843Z,6.52
2023-04-20T03:59:54.019Z,6.59
2023-04-20T04:02:22.531Z,6.57
2023-04-20T04:04:50.740Z,6.67
2023-04-20T04:07:18.561Z,6.63
2023-04-20T04:09:46.332Z,6.65
2023-04-20T04:12:14.097Z,6.71
2023-04-20T04:14:41.995Z,6.76
2023-04-20T04:17:11.187Z,6.71
2023-04-20T04:19:38.935Z,6.71
2023-04-20T04:22:07.005Z,6.75
2023-04-20T04:24:34.757Z,6.78
2023-04-20T04:27:05.289Z,6.75
2023-04-20T04:29:35.781Z,6.78
2023-04-20T04:32:05.244Z,6.78
2023-04-20T04:34:34.816Z,6.82
2023-04-20T04:37:02.815Z,6.83
2023-04-20T04:39:31.414Z,6.85
2023-04-20T04:41:59.201Z,6.86
2023-04-20T04:44:28.780Z,6.86
2023-04-20T04:46:56.512Z,6.89
2023-04-20T04:49:25.398Z,6.94
2023-04-20T04:51:54.505Z,6.94
2023-04-20T04:54:22.305Z,6.95
2023-04-20T04:56:50.073Z,7.03
2023-04-20T04:59:18.180Z,7.01
2023-04-20T05:01:46.200Z,6.96
2023-04-20T05:04:26.435Z,7.02
2023-04-20T05:06:55.597Z,7.00
2023-04-20T05:09:23.353Z,7.00
2023-04-20T05:11:51.053Z,7.03
2023-04-20T05:14:19.474Z,6.98
2023-04-20T05:16:47.497Z,7.03
2023-04-20T05:19:15.492Z,7.07
2023-04-20T05:21:43.607Z,7.07
2023-04-20T05:24:12.713Z,7.17
2023-04-20T05:26:40.592Z,7.22
2023-04-20T05:29:08.358Z,7.16
2023-04-20T05:31:36.640Z,7.27
2023-04-20T05:34:04.545Z,7.33
2023-04-20T05:36:35.838Z,7.41
2023-04-20T05:39:08.652Z,7.46
2023-04-20T05:41:37.749Z,7.45
2023-04-20T05:44:05.645Z,7.57
2023-04-20T05:46:33.437Z,7.58
2023-04-20T05:49:01.188Z,7.47
2023-04-20T05:51:33.429Z,7.51
2023-04-20T05:54:14.435Z,7.44
2023-04-20T05:56:43.547Z,7.52
2023-04-20T05:59:11.532Z,7.56
2023-04-20T06:01:39.276Z,7.54
2023-04-20T06:04:07.359Z,7.58
2023-04-20T06:06:35.602Z,7.63
2023-04-20T06:09:03.945Z,7.68
2023-04-20T06:11:31.769Z,7.75
2023-04-20T06:14:01.036Z,7.69
2023-04-20T06:16:28.863Z,7.70
2023-04-20T06:18:56.968Z,7.63
2023-04-20T06:21:26.866Z,7.71
2023-04-20T06:23:54.634Z,7.76
2023-04-20T06:26:23.355Z,7.74
2023-04-20T06:28:53.019Z,7.81
2023-04-20T06:31:22.265Z,7.76
2023-04-20T06:33:50.109Z,7.82
2023-04-20T06:36:17.892Z,7.83
2023-04-20T06:38:45.736Z,7.87
2023-04-20T06:41:13.471Z,7.91
2023-04-20T06:43:42.134Z,7.91
2023-04-20T06:46:09.983Z,8.02
2023-04-20T06:48:39.082Z,7.94
2023-04-20T06:51:07.050Z,7.83
2023-04-20T06:53:35.036Z,7.86
2023-04-20T06:56:03.273Z,7.81
2023-04-20T06:58:31.635Z,7.89
2023-04-20T07:01:20.082Z,7.90
2023-04-20T07:03:49.483Z,7.79
2023-04-20T07:06:17.508Z,7.85
2023-04-20T07:08:45.307Z,7.73
2023-04-20T07:11:13.116Z,7.69
2023-04-20T07:13:40.907Z,7.76
2023-04-20T07:16:10.200Z,7.75
2023-04-20T07:18:38.125Z,7.73
2023-04-20T07:21:07.472Z,7.62
2023-04-20T07:23:35.222Z,7.58
2023-04-20T07:26:03.020Z,7.50
2023-04-20T07:28:30.825Z,7.33
2023-04-20T07:30:59.496Z,7.26
2023-04-20T07:33:27.786Z,7.35
2023-04-20T07:35:55.616Z,7.30
2023-04-20T07:38:24.869Z,7.12
2023-04-20T07:40:52.643Z,7.00
2023-04-20T07:43:20.468Z,6.90
2023-04-20T07:45:48.627Z,7.00
2023-04-20T07:48:16.489Z,7.02
2023-04-20T07:50:44.501Z,6.96
2023-04-20T07:53:12.394Z,6.87
2023-04-20T07:55:41.638Z,6.81
2023-04-20T07:58:09.462Z,6.84
2023-04-20T08:00:37.345Z,6.83
2023-04-20T08:03:06.396Z,6.99
2023-04-20T08:05:34.413Z,6.87
2023-04-20T08:08:02.230Z,6.84
2023-04-20T08:10:30.014Z,6.71
2023-04-20T08:12:59.344Z,6.75
2023-04-20T08:15:27.190Z,6.79
2023-04-20T08:17:54.963Z,6.76
2023-04-20T08:20:22.809Z,6.80
2023-04-20T08:22:51.026Z,6.71
2023-04-20T08:25:18.937Z,6.62
2023-04-20T08:27:46.768Z,6.61
2023-04-20T08:30:16.501Z,6.65
2023-04-20T08:32:44.354Z,6.66
2023-04-20T08:35:12.155Z,6.67
2023-04-20T08:37:41.864Z,6.75
2023-04-20T08:40:11.113Z,6.68
2023-04-20T08:42:38.950Z,6.73
2023-04-20T08:45:07.598Z,6.77
2023-04-20T08:47:37.868Z,6.81
2023-04-20T08:50:07.138Z,6.74
2023-04-20T08:52:35.715Z,6.74
2023-04-20T08:55:04.263Z,6.81
2023-04-20T08:57:32.427Z,6.78
2023-04-20T09:00:00.512Z,6.68
2023-04-20T09:02:28.454Z,6.57
2023-04-20T09:05:05.174Z,6.71
2023-04-20T09:07:33.697Z,6.83
2023-04-20T09:10:02.320Z,6.89
2023-04-20T09:12:30.075Z,6.93
2023-04-20T09:14:57.828Z,6.91
2023-04-20T09:17:33.624Z,7.00
2023-04-20T09:20:05.109Z,7.09
2023-04-20T09:22:34.116Z,7.11
2023-04-20T09:25:02.430Z,6.98
2023-04-20T09:27:30.291Z,7.01
2023-04-20T09:29:59.669Z,6.93
2023-04-20T09:32:29.531Z,7.01
2023-04-20T09:34:57.866Z,6.99
2023-04-20T09:37:27.051Z,7.08
2023-04-20T09:40:02.554Z,7.04
2023-04-20T09:42:31.886Z,7.17
2023-04-20T09:45:00.442Z,7.18
2023-04-20T09:47:30.069Z,7.37
2023-04-20T09:50:02.393Z,7.57
2023-04-20T09:52:40.492Z,7.72
2023-04-20T09:55:11.690Z,7.74
2023-04-20T09:57:41.304Z,7.76
2023-04-20T10:00:10.972Z,7.83
2023-04-20T10:02:39.366Z,7.81
2023-04-20T10:05:08.857Z,7.81
2023-04-20T10:07:36.593Z,7.98
2023-04-20T10:10:11.558Z,8.10
2023-04-20T10:12:50.064Z,8.00
2023-04-20T10:15:18.349Z,8.07
2023-04-20T10:17:46.459Z,8.21
2023-04-20T10:20:25.416Z,8.35
2023-04-20T10:22:54.819Z,8.31
2023-04-20T10:25:28.560Z,8.41
2023-04-20T10:27:56.959Z,8.53
2023-04-20T10:30:25.550Z,8.55
2023-04-20T10:33:07.302Z,8.57
2023-04-20T10:35:48.489Z,8.60
2023-04-20T10:38:16.774Z,8.66
2023-04-20T10:40:46.045Z,8.66
2023-04-20T10:43:21.670Z,8.69
2023-04-20T10:45:50.595Z,8.55
2023-04-20T10:48:18.560Z,8.67
2023-04-20T10:50:46.541Z,8.68
2023-04-20T10:53:22.333Z,8.58
2023-04-20T10:56:01.105Z,8.57
2023-04-20T10:58:29.750Z,8.53
2023-04-20T11:01:01.710Z,8.47
2023-04-20T11:03:30.489Z,8.56
2023-04-20T11:06:01.383Z,8.55
2023-04-20T11:08:39.977Z,8.44
2023-04-20T11:11:19.319Z,8.53
2023-04-20T11:13:47.759Z,8.74
2023-04-20T11:16:19.678Z,8.85
2023-04-20T11:18:51.516Z,8.94
2023-04-20T11:21:19.854Z,9.10
2023-04-20T11:23:47.931Z,9.28
2023-04-20T11:26:17.433Z,9.39
2023-04-20T11:28:56.418Z,9.40
2023-04-20T11:31:25.564Z,9.24
2023-04-20T11:33:53.459Z,9.27
2023-04-20T11:36:22.434Z,9.56
2023-04-20T11:38:51.076Z,9.70
2023-04-20T11:41:20.311Z,10.16
2023-04-20T11:43:49.086Z,10.23
2023-04-20T11:46:18.185Z,10.19
2023-04-20T11:48:46.492Z,10.19
2023-04-20T11:51:14.869Z,10.21
2023-04-20T11:53:42.730Z,10.28
2023-04-20T11:56:10.719Z,10.28
2023-04-20T11:58:39.809Z,10.25
2023-04-20T12:01:07.606Z,10.15
2023-04-20T12:03:38.099Z,10.12
2023-04-20T12:06:06.032Z,10.13
2023-04-20T12:08:33.789Z,10.18
2023-04-20T12:11:01.826Z,10.07
2023-04-20T12:13:29.599Z,9.92
2023-04-20T12:15:58.792Z,9.90
2023-04-20T12:18:26.558Z,9.92
2023-04-20T12:20:54.338Z,9.99
2023-04-20T12:23:22.351Z,10.12
2023-04-20T12:25:50.427Z,10.27
2023-04-20T12:28:18.173Z,10.30
2023-04-20T12:30:45.894Z,10.36
2023-04-20T12:33:15.218Z,10.54
2023-04-20T12:35:42.969Z,10.62
2023-04-20T12:38:12.783Z,10.64
2023-04-20T12:40:41.854Z,10.57
2023-04-20T12:43:09.936Z,10.55
2023-04-20T12:45:37.775Z,10.46
2023-04-20T12:48:06.233Z,10.44
2023-04-20T12:50:35.531Z,10.47
2023-04-20T12:53:03.619Z,10.38
2023-04-20T12:55:31.736Z,10.38
2023-04-20T12:57:59.666Z,10.28
2023-04-20T13:00:27.500Z,10.24
2023-04-20T13:02:55.425Z,10.09
2023-04-20T13:05:23.455Z,10.11
2023-04-20T13:07:52.612Z,10.18
2023-04-20T13:10:20.431Z,10.07
2023-04-20T13:12:48.197Z,10.15
2023-04-20T13:15:28.333Z,10.23
2023-04-20T13:18:06.717Z,10.32
2023-04-20T13:20:34.574Z,10.65
2023-04-20T13:23:05.181Z,11.04
2023-04-20T13:25:34.463Z,11.09
2023-04-20T13:28:05.097Z,10.95
2023-04-20T13:30:33.968Z,10.62
2023-04-20T13:33:01.764Z,10.44
2023-04-20T13:35:29.626Z,10.47
2023-04-20T13:37:57.678Z,10.48
2023-04-20T13:40:27.198Z,10.69
2023-04-20T13:42:54.982Z,10.89
2023-04-20T13:45:22.748Z,11.03
2023-04-20T13:47:51.042Z,10.86
2023-04-20T13:50:18.820Z,10.98
2023-04-20T13:52:46.874Z,10.96
2023-04-20T13:55:14.595Z,10.80
2023-04-20T13:57:43.796Z,10.73
2023-04-20T14:00:14.326Z,10.72
2023-04-20T14:02:42.295Z,10.70
2023-04-20T14:05:10.648Z,10.70
2023-04-20T14:07:38.502Z,10.81
2023-04-20T14:10:07.756Z,10.81
2023-04-20T14:12:36.041Z,10.85
2023-04-20T14:15:05.953Z,10.85
2023-04-20T14:17:33.791Z,11.06
2023-04-20T14:20:01.921Z,10.99
2023-04-20T14:22:34.321Z,11.00
2023-04-20T14:25:02.733Z,11.13
2023-04-20T14:27:31.175Z,11.06
2023-04-20T14:29:59.049Z,11.05
2023-04-20T14:32:28.284Z,11.05
2023-04-20T14:34:56.265Z,10.98
2023-04-20T14:37:24.947Z,10.90
2023-04-20T14:39:52.835Z,10.81
2023-04-20T14:42:21.320Z,10.86
2023-04-20T14:44:49.108Z,10.85
2023-04-20T14:47:16.953Z,10.80
2023-04-20T14:49:46.263Z,10.72
2023-04-20T14:52:14.032Z,10.67
2023-04-20T14:54:41.908Z,10.70
2023-04-20T14:57:09.664Z,10.71
2023-04-20T14:59:37.500Z,10.76
2023-04-20T15:02:06.061Z,10.79
2023-04-20T15:04:34.138Z,10.67
2023-04-20T15:07:04.071Z,10.69
2023-04-20T15:09:32.709Z,10.75
2023-04-20T15:12:01.994Z,10.84
2023-04-20T15:14:29.868Z,10.88
2023-04-20T15:16:57.928Z,10.90
2023-04-20T15:19:25.853Z,10.99
2023-04-20T15:21:54.061Z,11.07
2023-04-20T15:24:24.170Z,11.13
2023-04-20T15:30:18.898Z,10.90
2023-04-20T15:32:46.762Z,11.07
2023-04-20T15:35:14.641Z,10.85
2023-04-20T15:37:42.711Z,10.81
2023-04-20T15:40:17.125Z,10.66
2023-04-20T15:42:45.089Z,10.89
2023-04-20T15:45:12.975Z,10.95
2023-04-20T15:47:43.317Z,11.08
2023-04-20T15:50:13.189Z,10.96
2023-04-20T15:52:41.544Z,10.81
2023-04-20T15:55:12.021Z,10.95
2023-04-20T15:57:42.593Z,11.00
2023-04-20T16:00:13.523Z,11.19
2023-04-20T16:02:41.539Z,11.32
2023-04-20T16:05:09.794Z,11.32
2023-04-20T16:07:37.829Z,11.27
2023-04-20T16:10:09.262Z,11.23
2023-04-20T16:12:39.172Z,11.15
2023-04-20T16:15:09.694Z,11.13
2023-04-20T16:17:37.551Z,11.19
2023-04-20T16:20:06.164Z,11.17
2023-04-20T16:22:34.252Z,11.22
2023-04-20T16:25:01.989Z,11.23
2023-04-20T16:27:29.905Z,11.23
2023-04-20T16:29:57.808Z,11.24
2023-04-20T16:32:27.079Z,11.27
2023-04-20T16:34:57.266Z,11.20
2023-04-20T16:37:25.279Z,11.02
2023-04-20T16:39:53.062Z,10.99
2023-04-20T16:42:21.479Z,11.07
2023-04-20T16:44:49.324Z,11.11
2023-04-20T16:47:17.233Z,11.03
2023-04-20T16:49:46.684Z,10.93
2023-04-20T16:52:14.710Z,11.08
2023-04-20T16:54:44.455Z,11.04
2023-04-20T16:57:12.270Z,10.95
2023-04-20T16:59:40.144Z,11.06
2023-04-20T17:02:08.823Z,11.07
2023-04-20T17:04:36.917Z,11.07
2023-04-20T17:07:06.231Z,11.12
2023-04-20T17:09:34.177Z,11.07
2023-04-20T17:12:01.995Z,11.09
2023-04-20T17:14:32.202Z,11.15
2023-04-20T17:17:01.780Z,11.17
2023-04-20T17:19:30.697Z,11.21
2023-04-20T17:21:59.294Z,11.17
2023-04-20T17:24:30.789Z,11.11
2023-04-20T17:27:01.818Z,11.11
2023-04-20T17:29:34.769Z,11.13
2023-04-20T17:32:02.669Z,11.11
2023-04-20T17:34:30.474Z,11.09
2023-04-20T17:36:58.237Z,11.11
2023-04-20T17:39:26.174Z,11.11
2023-04-20T17:41:55.311Z,11.15
2023-04-20T17:44:23.153Z,11.15
2023-04-20T17:46:51.329Z,11.17
2023-04-20T17:49:19.179Z,11.15
2023-04-20T17:51:47.068Z,11.13
2023-04-20T17:54:16.393Z,11.10
2023-04-20T17:56:44.702Z,11.14
2023-04-20T17:59:13.932Z,11.12
2023-04-20T18:01:41.967Z,11.14
2023-04-20T18:04:10.301Z,11.05
2023-04-20T18:06:38.211Z,11.02
2023-04-20T18:09:07.326Z,10.96
2023-04-20T18:11:37.244Z,10.97
2023-04-20T18:14:05.535Z,11.01
2023-04-20T18:16:35.017Z,10.95
2023-04-20T18:19:03.204Z,11.01
2023-04-20T18:21:32.374Z,11.02
2023-04-20T18:24:00.238Z,10.98
2023-04-20T18:26:28.287Z,10.93
2023-04-20T18:28:56.255Z,10.94
2023-04-20T18:31:24.254Z,10.83
2023-04-20T18:33:54.011Z,10.81
2023-04-20T18:36:22.135Z,10.75
2023-04-20T18:38:51.285Z,10.87
2023-04-20T18:41:19.512Z,10.84
2023-04-20T18:43:50.841Z,10.71
2023-04-20T18:46:18.660Z,10.70
2023-04-20T18:48:46.606Z,10.68
2023-04-20T18:51:15.841Z,10.57
2023-04-20T18:53:46.175Z,10.52
2023-04-20T18:56:13.963Z,10.50
2023-04-20T18:58:41.990Z,10.46
2023-04-20T19:01:09.987Z,10.42
2023-04-20T19:03:38.145Z,10.38
2023-04-20T19:06:06.314Z,10.29
2023-04-20T19:08:35.528Z,10.29
2023-04-20T19:11:03.355Z,10.21
2023-04-20T19:13:31.187Z,10.30
2023-04-20T19:15:59.051Z,10.25
2023-04-20T19:18:27.291Z,10.22
2023-04-20T19:20:55.513Z,10.24
2023-04-20T19:23:23.339Z,10.21
2023-04-20T19:25:52.511Z,10.18
2023-04-20T19:28:21.683Z,10.17
2023-04-20T19:30:51.272Z,10.19
2023-04-20T19:33:19.098Z,10.14
2023-04-20T19:35:50.748Z,10.09
2023-04-20T19:38:19.467Z,10.02
2023-04-20T19:40:47.728Z,10.02
2023-04-20T19:43:33.154Z,10.02
2023-04-20T19:46:01.565Z,9.94
2023-04-20T19:48:29.711Z,9.89
2023-04-20T19:50:59.175Z,9.89
2023-04-20T19:53:27.357Z,9.83
2023-04-20T19:55:55.180Z,9.78
2023-04-20T19:58:23.128Z,9.66
2023-04-20T20:00:52.329Z,9.69
2023-04-20T20:03:20.326Z,9.62
2023-04-20T20:05:48.490Z,9.58
2023-04-20T20:08:16.623Z,9.52
2023-04-20T20:10:44.785Z,9.46
2023-04-20T20:13:12.573Z,9.46
2023-04-20T20:15:40.503Z,9.41
2023-04-20T20:18:30.949Z,9.36
2023-04-20T20:20:58.944Z,9.29
2023-04-20T20:23:26.725Z,9.13
2023-04-20T20:25:54.507Z,9.11
2023-04-20T20:28:22.527Z,9.08
2023-04-20T20:30:50.296Z,9.14
2023-04-20T20:33:19.472Z,9.18
2023-04-20T20:35:47.900Z,9.17
2023-04-20T20:38:16.231Z,9.18
2023-04-20T20:40:44.569Z,9.24
2023-04-20T20:43:15.431Z,9.19
2023-04-20T20:45:43.237Z,9.22
2023-04-20T20:48:11.035Z,9.23
2023-04-20T20:50:40.615Z,9.21
2023-04-20T20:53:09.045Z,9.18
2023-04-20T20:55:37.149Z,9.15
2023-04-20T20:58:05.039Z,9.09
2023-04-20T21:00:33.418Z,9.02
2023-04-20T21:03:01.459Z,9.04
2023-04-20T21:05:29.347Z,9.13
2023-04-20T21:07:58.570Z,9.08
2023-04-20T21:10:26.535Z,9.15
2023-04-20T21:12:56.144Z,9.14
2023-04-20T21:15:23.965Z,9.11
2023-04-20T21:17:51.808Z,9.15
2023-04-20T21:20:19.634Z,9.10
2023-04-20T21:22:47.694Z,9.13
2023-04-20T21:25:16.828Z,9.14
2023-04-20T21:27:44.563Z,9.06
2023-04-20T21:30:13.443Z,9.05
2023-04-20T21:32:41.250Z,9.11
2023-04-20T21:35:09.791Z,9.17
2023-04-20T21:37:38.517Z,9.06
2023-04-20T21:40:07.443Z,9.06
2023-04-20T21:42:36.608Z,9.07
2023-04-20T21:45:05.925Z,9.11
2023-04-20T21:47:33.713Z,9.12
2023-04-20T21:50:01.541Z,9.10
2023-04-20T21:52:29.337Z,9.10
2023-04-20T21:54:57.195Z,9.05
2023-04-20T21:57:24.976Z,9.02
2023-04-20T21:59:54.230Z,9.02
2023-04-20T22:02:22.093Z,9.02
2023-04-20T22:04:50.028Z,9.03
2023-04-20T22:07:18.752Z,8.97
2023-04-20T22:09:46.609Z,9.02
2023-04-20T22:12:14.377Z,9.05
2023-04-20T22:14:44.559Z,9.03
2023-04-20T22:17:14.403Z,9.03
2023-04-20T22:19:42.257Z,9.04
2023-04-20T22:22:10.469Z,9.06
2023-04-20T22:24:38.239Z,9.08
2023-04-20T22:27:06.020Z,9.04
2023-04-20T22:29:33.777Z,9.04
2023-04-20T22:32:01.507Z,9.01
2023-04-20T22:34:30.761Z,8.99
2023-04-20T22:36:58.634Z,8.96
2023-04-20T22:39:26.731Z,8.95
2023-04-20T22:41:54.473Z,8.98
2023-04-20T22:44:22.214Z,8.91
2023-04-20T22:46:50.939Z,8.87
2023-04-20T22:49:19.524Z,8.80
2023-04-20T22:51:48.797Z,8.76
2023-04-20T22:54:16.671Z,8.70
2023-04-20T22:56:44.407Z,8.70
2023-04-20T22:59:12.217Z,8.59
2023-04-20T23:01:40.015Z,8.55
2023-04-20T23:04:08.082Z,8.52
2023-04-20T23:06:36.453Z,8.52
2023-04-20T23:09:07.644Z,8.51
2023-04-20T23:11:38.758Z,8.44
2023-04-20T23:14:07.284Z,8.37
2023-04-20T23:16:35.328Z,8.29
2023-04-20T23:19:03.229Z,8.31
2023-04-20T23:21:31.233Z,8.34
2023-04-20T23:23:59.102Z,8.29
2023-04-20T23:26:28.194Z,8.25
2023-04-20T23:28:56.183Z,8.22
2023-04-20T23:31:24.031Z,8.30
2023-04-20T23:33:51.856Z,8.28
2023-04-20T23:36:19.606Z,8.28
2023-04-20T23:38:47.338Z,8.19
2023-04-20T23:41:16.509Z,8.18
2023-04-20T23:43:45.644Z,8.19
2023-04-20T23:46:14.475Z,8.18
2023-04-20T23:48:42.370Z,8.12
2023-04-20T23:51:10.315Z,8.10
2023-04-20T23:53:39.089Z,8.13
2023-04-20T23:56:07.956Z,8.17
2023-04-20T23:58:36.386Z,8.15
